sensor_id;sensor_type;location;lat;lon;timestamp;P1;durP1;ratioP1;P2;durP2;ratioP2
485;SDS011;229;48.734;9.340;2023-12-29T00:00:50;7.28;;;3.13;;
485;SDS011;229;48.734;9.340;2023-12-29T00:03:17;2.78;;;2.35;;
485;SDS011;229;48.734;9.340;2023-12-29T00:05:45;2.80;;;2.08;;
485;SDS011;229;48.734;9.340;2023-12-29T00:08:12;2.90;;;2.30;;
485;SDS011;229;48.734;9.340;2023-12-29T00:10:39;5.07;;;2.45;;
485;SDS011;229;48.734;9.340;2023-12-29T00:13:08;3.75;;;2.60;;
485;SDS011;229;48.734;9.340;2023-12-29T00:15:35;3.67;;;2.42;;
485;SDS011;229;48.734;9.340;2023-12-29T00:18:03;3.00;;;2.00;;
485;SDS011;229;48.734;9.340;2023-12-29T00:20:30;3.78;;;2.30;;
485;SDS011;229;48.734;9.340;2023-12-29T00:22:57;3.15;;;2.25;;
485;SDS011;229;48.734;9.340;2023-12-29T00:25:24;3.22;;;2.60;;
485;SDS011;229;48.734;9.340;2023-12-29T00:27:52;2.88;;;2.40;;
485;SDS011;229;48.734;9.340;2023-12-29T00:30:20;3.08;;;2.25;;
485;SDS011;229;48.734;9.340;2023-12-29T00:32:47;2.63;;;2.20;;
485;SDS011;229;48.734;9.340;2023-12-29T00:35:14;3.70;;;2.20;;
485;SDS011;229;48.734;9.340;2023-12-29T00:37:42;2.92;;;2.17;;
485;SDS011;229;48.734;9.340;2023-12-29T00:40:09;4.28;;;2.80;;
485;SDS011;229;48.734;9.340;2023-12-29T00:42:36;5.78;;;2.53;;
485;SDS011;229;48.734;9.340;2023-12-29T00:45:04;2.83;;;2.20;;
485;SDS011;229;48.734;9.340;2023-12-29T00:47:33;3.40;;;2.38;;
485;SDS011;229;48.734;9.340;2023-12-29T00:50:00;2.80;;;2.20;;
485;SDS011;229;48.734;9.340;2023-12-29T00:52:27;2.78;;;2.20;;
485;SDS011;229;48.734;9.340;2023-12-29T00:54:54;3.55;;;2.63;;
485;SDS011;229;48.734;9.340;2023-12-29T00:57:21;3.55;;;2.53;;
485;SDS011;229;48.734;9.340;2023-12-29T00:59:49;3.10;;;2.50;;
485;SDS011;229;48.734;9.340;2023-12-29T01:02:16;2.67;;;2.40;;
485;SDS011;229;48.734;9.340;2023-12-29T01:04:44;3.70;;;3.05;;
485;SDS011;229;48.734;9.340;2023-12-29T01:07:12;3.85;;;2.42;;
485;SDS011;229;48.734;9.340;2023-12-29T01:09:39;5.72;;;2.78;;
485;SDS011;229;48.734;9.340;2023-12-29T01:12:06;3.15;;;2.63;;
485;SDS011;229;48.734;9.340;2023-12-29T01:14:33;3.70;;;2.45;;
485;SDS011;229;48.734;9.340;2023-12-29T01:17:01;4.90;;;2.75;;
485;SDS011;229;48.734;9.340;2023-12-29T01:19:28;5.18;;;2.72;;
485;SDS011;229;48.734;9.340;2023-12-29T01:21:56;3.75;;;2.60;;
485;SDS011;229;48.734;9.340;2023-12-29T01:24:23;2.72;;;2.53;;
485;SDS011;229;48.734;9.340;2023-12-29T01:26:51;3.88;;;2.92;;
485;SDS011;229;48.734;9.340;2023-12-29T01:29:18;4.20;;;2.70;;
485;SDS011;229;48.734;9.340;2023-12-29T01:31:45;3.88;;;2.50;;
485;SDS011;229;48.734;9.340;2023-12-29T01:34:12;3.80;;;2.42;;
485;SDS011;229;48.734;9.340;2023-12-29T01:36:40;4.43;;;2.78;;
485;SDS011;229;48.734;9.340;2023-12-29T01:39:08;3.83;;;2.53;;
485;SDS011;229;48.734;9.340;2023-12-29T01:41:35;5.57;;;3.35;;
485;SDS011;229;48.734;9.340;2023-12-29T01:44:17;4.78;;;2.60;;
485;SDS011;229;48.734;9.340;2023-12-29T01:46:45;3.55;;;2.80;;
485;SDS011;229;48.734;9.340;2023-12-29T01:49:13;3.55;;;3.03;;
485;SDS011;229;48.734;9.340;2023-12-29T01:51:40;2.78;;;2.58;;
485;SDS011;229;48.734;9.340;2023-12-29T01:54:10;4.55;;;2.70;;
485;SDS011;229;48.734;9.340;2023-12-29T01:56:37;5.25;;;2.97;;
485;SDS011;229;48.734;9.340;2023-12-29T01:59:03;4.78;;;2.92;;
485;SDS011;229;48.734;9.340;2023-12-29T02:01:31;4.47;;;3.33;;
485;SDS011;229;48.734;9.340;2023-12-29T02:03:58;5.03;;;3.10;;
485;SDS011;229;48.734;9.340;2023-12-29T02:06:25;4.28;;;3.17;;
485;SDS011;229;48.734;9.340;2023-12-29T02:08:53;7.18;;;3.58;;
485;SDS011;229;48.734;9.340;2023-12-29T02:11:22;4.70;;;3.45;;
485;SDS011;229;48.734;9.340;2023-12-29T02:13:50;6.70;;;3.20;;
485;SDS011;229;48.734;9.340;2023-12-29T02:16:19;6.18;;;3.35;;
485;SDS011;229;48.734;9.340;2023-12-29T02:18:47;4.75;;;3.50;;
485;SDS011;229;48.734;9.340;2023-12-29T02:21:15;4.88;;;3.10;;
485;SDS011;229;48.734;9.340;2023-12-29T02:23:43;5.35;;;3.60;;
485;SDS011;229;48.734;9.340;2023-12-29T02:26:11;4.55;;;3.42;;
485;SDS011;229;48.734;9.340;2023-12-29T02:28:42;4.78;;;3.53;;
485;SDS011;229;48.734;9.340;2023-12-29T02:31:13;3.90;;;3.47;;
485;SDS011;229;48.734;9.340;2023-12-29T02:33:41;4.68;;;2.85;;
485;SDS011;229;48.734;9.340;2023-12-29T02:36:09;4.78;;;3.72;;
485;SDS011;229;48.734;9.340;2023-12-29T02:38:37;4.20;;;2.83;;
485;SDS011;229;48.734;9.340;2023-12-29T02:41:05;5.05;;;3.47;;
485;SDS011;229;48.734;9.340;2023-12-29T02:43:33;4.00;;;3.05;;
485;SDS011;229;48.734;9.340;2023-12-29T02:46:00;4.63;;;3.83;;
485;SDS011;229;48.734;9.340;2023-12-29T02:48:28;4.38;;;3.15;;
485;SDS011;229;48.734;9.340;2023-12-29T02:50:55;6.32;;;3.33;;
485;SDS011;229;48.734;9.340;2023-12-29T02:53:21;5.13;;;3.00;;
485;SDS011;229;48.734;9.340;2023-12-29T02:55:48;4.10;;;3.47;;
485;SDS011;229;48.734;9.340;2023-12-29T02:58:15;5.70;;;3.83;;
485;SDS011;229;48.734;9.340;2023-12-29T03:00:44;6.50;;;3.00;;
485;SDS011;229;48.734;9.340;2023-12-29T03:03:10;4.65;;;3.10;;
485;SDS011;229;48.734;9.340;2023-12-29T03:05:37;6.13;;;3.50;;
485;SDS011;229;48.734;9.340;2023-12-29T03:08:04;4.68;;;3.60;;
485;SDS011;229;48.734;9.340;2023-12-29T03:10:32;5.30;;;3.80;;
485;SDS011;229;48.734;9.340;2023-12-29T03:12:59;5.13;;;3.65;;
485;SDS011;229;48.734;9.340;2023-12-29T03:15:27;5.97;;;3.63;;
485;SDS011;229;48.734;9.340;2023-12-29T03:17:56;7.35;;;3.63;;
485;SDS011;229;48.734;9.340;2023-12-29T03:20:23;4.53;;;3.40;;
485;SDS011;229;48.734;9.340;2023-12-29T03:22:50;3.92;;;2.95;;
485;SDS011;229;48.734;9.340;2023-12-29T03:25:17;3.70;;;3.17;;
485;SDS011;229;48.734;9.340;2023-12-29T03:27:44;4.50;;;3.40;;
485;SDS011;229;48.734;9.340;2023-12-29T03:30:12;3.70;;;2.88;;
485;SDS011;229;48.734;9.340;2023-12-29T03:32:39;6.65;;;3.28;;
485;SDS011;229;48.734;9.340;2023-12-29T03:35:07;4.53;;;3.40;;
485;SDS011;229;48.734;9.340;2023-12-29T03:37:35;4.40;;;3.63;;
485;SDS011;229;48.734;9.340;2023-12-29T03:40:02;4.38;;;3.65;;
485;SDS011;229;48.734;9.340;2023-12-29T03:42:29;4.53;;;3.50;;
485;SDS011;229;48.734;9.340;2023-12-29T03:44:56;5.32;;;3.30;;
485;SDS011;229;48.734;9.340;2023-12-29T03:47:24;3.40;;;3.10;;
485;SDS011;229;48.734;9.340;2023-12-29T03:49:51;3.53;;;2.72;;
485;SDS011;229;48.734;9.340;2023-12-29T03:52:20;3.65;;;2.85;;
485;SDS011;229;48.734;9.340;2023-12-29T03:54:47;4.10;;;3.80;;
485;SDS011;229;48.734;9.340;2023-12-29T03:57:14;4.82;;;3.63;;
485;SDS011;229;48.734;9.340;2023-12-29T03:59:41;5.00;;;3.58;;
485;SDS011;229;48.734;9.340;2023-12-29T04:02:08;5.70;;;3.55;;
485;SDS011;229;48.734;9.340;2023-12-29T04:04:36;4.50;;;3.40;;
485;SDS011;229;48.734;9.340;2023-12-29T04:07:03;3.97;;;2.92;;
485;SDS011;229;48.734;9.340;2023-12-29T04:09:32;4.60;;;3.40;;
485;SDS011;229;48.734;9.340;2023-12-29T04:11:59;5.13;;;2.80;;
485;SDS011;229;48.734;9.340;2023-12-29T04:14:26;4.55;;;3.10;;
485;SDS011;229;48.734;9.340;2023-12-29T04:16:54;5.53;;;3.80;;
485;SDS011;229;48.734;9.340;2023-12-29T04:19:21;4.88;;;3.60;;
485;SDS011;229;48.734;9.340;2023-12-29T04:21:48;5.03;;;3.53;;
485;SDS011;229;48.734;9.340;2023-12-29T04:24:15;4.55;;;3.38;;
485;SDS011;229;48.734;9.340;2023-12-29T04:26:44;5.25;;;3.15;;
485;SDS011;229;48.734;9.340;2023-12-29T04:29:11;4.68;;;3.13;;
485;SDS011;229;48.734;9.340;2023-12-29T04:31:38;5.47;;;3.00;;
485;SDS011;229;48.734;9.340;2023-12-29T04:34:05;4.28;;;3.00;;
485;SDS011;229;48.734;9.340;2023-12-29T04:36:32;3.85;;;3.33;;
485;SDS011;229;48.734;9.340;2023-12-29T04:38:59;3.58;;;3.10;;
485;SDS011;229;48.734;9.340;2023-12-29T04:41:26;4.55;;;3.40;;
485;SDS011;229;48.734;9.340;2023-12-29T04:43:55;5.28;;;3.60;;
485;SDS011;229;48.734;9.340;2023-12-29T04:46:22;4.30;;;3.72;;
485;SDS011;229;48.734;9.340;2023-12-29T04:48:49;4.30;;;3.63;;
485;SDS011;229;48.734;9.340;2023-12-29T04:51:16;6.40;;;4.40;;
485;SDS011;229;48.734;9.340;2023-12-29T04:53:44;6.18;;;3.90;;
485;SDS011;229;48.734;9.340;2023-12-29T04:56:11;4.13;;;3.28;;
485;SDS011;229;48.734;9.340;2023-12-29T04:58:38;4.53;;;3.00;;
485;SDS011;229;48.734;9.340;2023-12-29T05:01:07;5.35;;;3.95;;
485;SDS011;229;48.734;9.340;2023-12-29T05:03:34;4.57;;;3.30;;
485;SDS011;229;48.734;9.340;2023-12-29T05:06:01;5.22;;;3.53;;
485;SDS011;229;48.734;9.340;2023-12-29T05:08:28;4.72;;;3.78;;
485;SDS011;229;48.734;9.340;2023-12-29T05:10:55;5.25;;;3.45;;
485;SDS011;229;48.734;9.340;2023-12-29T05:13:23;5.82;;;3.92;;
485;SDS011;229;48.734;9.340;2023-12-29T05:15:50;4.85;;;3.13;;
485;SDS011;229;48.734;9.340;2023-12-29T05:18:18;5.20;;;3.80;;
485;SDS011;229;48.734;9.340;2023-12-29T05:20:45;6.95;;;3.78;;
485;SDS011;229;48.734;9.340;2023-12-29T05:23:13;5.20;;;3.83;;
485;SDS011;229;48.734;9.340;2023-12-29T05:25:40;4.15;;;3.08;;
485;SDS011;229;48.734;9.340;2023-12-29T05:28:07;5.78;;;4.55;;
485;SDS011;229;48.734;9.340;2023-12-29T05:30:34;4.18;;;2.97;;
485;SDS011;229;48.734;9.340;2023-12-29T05:33:01;4.00;;;3.03;;
485;SDS011;229;48.734;9.340;2023-12-29T05:35:30;3.70;;;2.75;;
485;SDS011;229;48.734;9.340;2023-12-29T05:37:57;5.07;;;3.85;;
485;SDS011;229;48.734;9.340;2023-12-29T05:40:24;5.07;;;2.92;;
485;SDS011;229;48.734;9.340;2023-12-29T05:42:51;4.07;;;2.88;;
485;SDS011;229;48.734;9.340;2023-12-29T05:45:18;5.50;;;2.70;;
485;SDS011;229;48.734;9.340;2023-12-29T05:47:46;4.45;;;3.13;;
485;SDS011;229;48.734;9.340;2023-12-29T05:50:13;2.80;;;2.50;;
485;SDS011;229;48.734;9.340;2023-12-29T05:52:41;3.53;;;3.15;;
485;SDS011;229;48.734;9.340;2023-12-29T05:55:09;4.72;;;3.35;;
485;SDS011;229;48.734;9.340;2023-12-29T05:57:36;5.97;;;3.53;;
485;SDS011;229;48.734;9.340;2023-12-29T06:00:03;7.03;;;3.55;;
485;SDS011;229;48.734;9.340;2023-12-29T06:02:31;3.55;;;3.00;;
485;SDS011;229;48.734;9.340;2023-12-29T06:04:58;4.88;;;3.20;;
485;SDS011;229;48.734;9.340;2023-12-29T06:07:25;6.72;;;3.17;;
485;SDS011;229;48.734;9.340;2023-12-29T06:09:54;4.22;;;2.85;;
485;SDS011;229;48.734;9.340;2023-12-29T06:12:21;3.63;;;3.25;;
485;SDS011;229;48.734;9.340;2023-12-29T06:14:48;3.85;;;3.45;;
485;SDS011;229;48.734;9.340;2023-12-29T06:17:14;3.50;;;3.30;;
485;SDS011;229;48.734;9.340;2023-12-29T06:19:42;5.28;;;2.85;;
485;SDS011;229;48.734;9.340;2023-12-29T06:22:09;4.20;;;3.20;;
485;SDS011;229;48.734;9.340;2023-12-29T06:24:36;3.78;;;3.30;;
485;SDS011;229;48.734;9.340;2023-12-29T06:27:05;4.18;;;3.47;;
485;SDS011;229;48.734;9.340;2023-12-29T06:29:32;4.05;;;3.60;;
485;SDS011;229;48.734;9.340;2023-12-29T06:31:59;5.18;;;3.40;;
485;SDS011;229;48.734;9.340;2023-12-29T06:34:26;5.50;;;3.85;;
485;SDS011;229;48.734;9.340;2023-12-29T06:36:54;5.63;;;3.97;;
485;SDS011;229;48.734;9.340;2023-12-29T06:39:21;5.10;;;3.55;;
485;SDS011;229;48.734;9.340;2023-12-29T06:41:48;4.70;;;3.22;;
485;SDS011;229;48.734;9.340;2023-12-29T06:44:17;5.15;;;3.75;;
485;SDS011;229;48.734;9.340;2023-12-29T06:46:44;7.00;;;4.40;;
485;SDS011;229;48.734;9.340;2023-12-29T06:49:11;5.47;;;3.80;;
485;SDS011;229;48.734;9.340;2023-12-29T06:51:39;4.50;;;3.72;;
485;SDS011;229;48.734;9.340;2023-12-29T06:54:06;4.80;;;4.03;;
485;SDS011;229;48.734;9.340;2023-12-29T06:56:34;3.63;;;3.42;;
485;SDS011;229;48.734;9.340;2023-12-29T06:59:01;6.82;;;4.30;;
485;SDS011;229;48.734;9.340;2023-12-29T07:01:29;5.43;;;4.20;;
485;SDS011;229;48.734;9.340;2023-12-29T07:03:57;5.43;;;4.00;;
485;SDS011;229;48.734;9.340;2023-12-29T07:06:24;5.60;;;3.90;;
485;SDS011;229;48.734;9.340;2023-12-29T07:08:51;8.35;;;3.88;;
485;SDS011;229;48.734;9.340;2023-12-29T07:11:18;5.95;;;3.80;;
485;SDS011;229;48.734;9.340;2023-12-29T07:13:45;4.85;;;3.83;;
485;SDS011;229;48.734;9.340;2023-12-29T07:16:13;6.03;;;3.72;;
485;SDS011;229;48.734;9.340;2023-12-29T07:18:41;4.90;;;3.97;;
485;SDS011;229;48.734;9.340;2023-12-29T07:21:08;6.43;;;4.00;;
485;SDS011;229;48.734;9.340;2023-12-29T07:23:37;5.00;;;3.55;;
485;SDS011;229;48.734;9.340;2023-12-29T07:26:04;5.80;;;3.63;;
485;SDS011;229;48.734;9.340;2023-12-29T07:28:31;6.20;;;4.93;;
485;SDS011;229;48.734;9.340;2023-12-29T07:30:59;4.72;;;4.15;;
485;SDS011;229;48.734;9.340;2023-12-29T07:33:26;5.03;;;4.30;;
485;SDS011;229;48.734;9.340;2023-12-29T07:35:55;4.82;;;3.95;;
485;SDS011;229;48.734;9.340;2023-12-29T07:38:22;6.82;;;4.00;;
485;SDS011;229;48.734;9.340;2023-12-29T07:40:50;4.78;;;3.20;;
485;SDS011;229;48.734;9.340;2023-12-29T07:43:17;4.53;;;3.17;;
485;SDS011;229;48.734;9.340;2023-12-29T07:45:44;4.40;;;3.58;;
485;SDS011;229;48.734;9.340;2023-12-29T07:48:11;5.18;;;3.60;;
485;SDS011;229;48.734;9.340;2023-12-29T07:50:39;3.42;;;3.22;;
485;SDS011;229;48.734;9.340;2023-12-29T07:53:07;4.45;;;3.85;;
485;SDS011;229;48.734;9.340;2023-12-29T07:55:37;4.47;;;3.60;;
485;SDS011;229;48.734;9.340;2023-12-29T07:58:05;5.28;;;3.50;;
485;SDS011;229;48.734;9.340;2023-12-29T08:00:35;4.30;;;3.53;;
485;SDS011;229;48.734;9.340;2023-12-29T08:03:02;4.38;;;3.55;;
485;SDS011;229;48.734;9.340;2023-12-29T08:05:30;4.75;;;3.63;;
485;SDS011;229;48.734;9.340;2023-12-29T08:07:57;6.88;;;3.80;;
485;SDS011;229;48.734;9.340;2023-12-29T08:10:26;5.05;;;3.17;;
485;SDS011;229;48.734;9.340;2023-12-29T08:12:53;4.25;;;3.40;;
485;SDS011;229;48.734;9.340;2023-12-29T08:15:20;4.28;;;3.25;;
485;SDS011;229;48.734;9.340;2023-12-29T08:17:47;3.45;;;3.13;;
485;SDS011;229;48.734;9.340;2023-12-29T08:20:15;4.43;;;3.33;;
485;SDS011;229;48.734;9.340;2023-12-29T08:22:42;4.72;;;3.22;;
485;SDS011;229;48.734;9.340;2023-12-29T08:25:09;3.50;;;3.15;;
485;SDS011;229;48.734;9.340;2023-12-29T08:27:37;5.10;;;3.85;;
485;SDS011;229;48.734;9.340;2023-12-29T08:30:06;5.75;;;3.15;;
485;SDS011;229;48.734;9.340;2023-12-29T08:32:34;5.45;;;2.80;;
485;SDS011;229;48.734;9.340;2023-12-29T08:35:01;3.45;;;2.80;;
485;SDS011;229;48.734;9.340;2023-12-29T08:37:28;3.90;;;2.60;;
485;SDS011;229;48.734;9.340;2023-12-29T08:39:55;3.42;;;2.63;;
485;SDS011;229;48.734;9.340;2023-12-29T08:42:22;4.88;;;2.80;;
485;SDS011;229;48.734;9.340;2023-12-29T08:44:51;6.05;;;3.20;;
485;SDS011;229;48.734;9.340;2023-12-29T08:47:18;4.15;;;2.65;;
485;SDS011;229;48.734;9.340;2023-12-29T08:49:45;3.22;;;2.60;;
485;SDS011;229;48.734;9.340;2023-12-29T08:52:14;6.35;;;3.35;;
485;SDS011;229;48.734;9.340;2023-12-29T08:54:41;3.45;;;2.58;;
485;SDS011;229;48.734;9.340;2023-12-29T08:57:08;5.18;;;3.20;;
485;SDS011;229;48.734;9.340;2023-12-29T08:59:35;2.80;;;2.50;;
485;SDS011;229;48.734;9.340;2023-12-29T09:02:04;3.95;;;2.95;;
485;SDS011;229;48.734;9.340;2023-12-29T09:04:32;2.90;;;2.50;;
485;SDS011;229;48.734;9.340;2023-12-29T09:06:59;2.58;;;2.08;;
485;SDS011;229;48.734;9.340;2023-12-29T09:09:26;3.85;;;2.58;;
485;SDS011;229;48.734;9.340;2023-12-29T09:11:53;6.18;;;4.55;;
485;SDS011;229;48.734;9.340;2023-12-29T09:14:20;3.20;;;2.90;;
485;SDS011;229;48.734;9.340;2023-12-29T09:16:47;3.10;;;2.80;;
485;SDS011;229;48.734;9.340;2023-12-29T09:19:17;3.05;;;2.45;;
485;SDS011;229;48.734;9.340;2023-12-29T09:21:44;2.90;;;2.45;;
485;SDS011;229;48.734;9.340;2023-12-29T09:24:11;6.45;;;2.40;;
485;SDS011;229;48.734;9.340;2023-12-29T09:26:38;5.30;;;2.70;;
485;SDS011;229;48.734;9.340;2023-12-29T09:29:05;3.13;;;2.30;;
485;SDS011;229;48.734;9.340;2023-12-29T09:31:33;3.75;;;2.60;;
485;SDS011;229;48.734;9.340;2023-12-29T09:34:01;6.03;;;2.50;;
485;SDS011;229;48.734;9.340;2023-12-29T09:36:29;3.63;;;2.58;;
485;SDS011;229;48.734;9.340;2023-12-29T09:38:56;3.40;;;2.63;;
485;SDS011;229;48.734;9.340;2023-12-29T09:41:24;5.05;;;2.78;;
485;SDS011;229;48.734;9.340;2023-12-29T09:43:52;3.58;;;2.15;;
485;SDS011;229;48.734;9.340;2023-12-29T09:46:21;2.95;;;2.10;;
485;SDS011;229;48.734;9.340;2023-12-29T09:48:49;3.50;;;2.50;;
485;SDS011;229;48.734;9.340;2023-12-29T09:51:18;2.47;;;1.75;;
485;SDS011;229;48.734;9.340;2023-12-29T09:53:49;3.95;;;1.88;;
485;SDS011;229;48.734;9.340;2023-12-29T09:56:16;3.90;;;2.50;;
485;SDS011;229;48.734;9.340;2023-12-29T09:58:45;3.60;;;1.90;;
485;SDS011;229;48.734;9.340;2023-12-29T10:01:13;4.45;;;2.05;;
485;SDS011;229;48.734;9.340;2023-12-29T10:03:41;2.42;;;2.10;;
485;SDS011;229;48.734;9.340;2023-12-29T10:06:08;2.60;;;1.98;;
485;SDS011;229;48.734;9.340;2023-12-29T10:08:36;3.30;;;2.10;;
485;SDS011;229;48.734;9.340;2023-12-29T10:11:05;2.80;;;2.08;;
485;SDS011;229;48.734;9.340;2023-12-29T10:13:33;2.70;;;1.98;;
485;SDS011;229;48.734;9.340;2023-12-29T10:16:04;2.47;;;1.83;;
485;SDS011;229;48.734;9.340;2023-12-29T10:18:37;5.82;;;1.90;;
485;SDS011;229;48.734;9.340;2023-12-29T10:21:07;3.30;;;2.05;;
485;SDS011;229;48.734;9.340;2023-12-29T10:23:36;3.33;;;2.17;;
485;SDS011;229;48.734;9.340;2023-12-29T10:26:06;2.28;;;1.90;;
485;SDS011;229;48.734;9.340;2023-12-29T10:28:34;3.45;;;1.80;;
485;SDS011;229;48.734;9.340;2023-12-29T10:31:01;2.33;;;2.10;;
485;SDS011;229;48.734;9.340;2023-12-29T10:33:28;2.75;;;2.08;;
485;SDS011;229;48.734;9.340;2023-12-29T10:35:57;4.80;;;1.77;;
485;SDS011;229;48.734;9.340;2023-12-29T10:38:27;2.15;;;1.52;;
485;SDS011;229;48.734;9.340;2023-12-29T10:40:54;3.33;;;2.75;;
485;SDS011;229;48.734;9.340;2023-12-29T10:43:23;2.67;;;2.03;;
485;SDS011;229;48.734;9.340;2023-12-29T10:45:53;2.80;;;1.73;;
485;SDS011;229;48.734;9.340;2023-12-29T10:48:32;3.28;;;1.73;;
485;SDS011;229;48.734;9.340;2023-12-29T10:50:59;2.13;;;1.58;;
485;SDS011;229;48.734;9.340;2023-12-29T10:53:29;2.95;;;1.85;;
485;SDS011;229;48.734;9.340;2023-12-29T10:55:56;2.40;;;1.65;;
485;SDS011;229;48.734;9.340;2023-12-29T10:58:25;1.90;;;1.60;;
485;SDS011;229;48.734;9.340;2023-12-29T11:00:54;1.88;;;1.50;;
485;SDS011;229;48.734;9.340;2023-12-29T11:03:21;2.78;;;1.95;;
485;SDS011;229;48.734;9.340;2023-12-29T11:05:49;4.20;;;1.63;;
485;SDS011;229;48.734;9.340;2023-12-29T11:08:17;2.53;;;2.00;;
485;SDS011;229;48.734;9.340;2023-12-29T11:10:46;5.72;;;2.20;;
485;SDS011;229;48.734;9.340;2023-12-29T11:13:13;2.33;;;1.80;;
485;SDS011;229;48.734;9.340;2023-12-29T11:15:42;3.78;;;2.33;;
485;SDS011;229;48.734;9.340;2023-12-29T11:18:11;2.05;;;1.67;;
485;SDS011;229;48.734;9.340;2023-12-29T11:20:39;2.30;;;1.50;;
485;SDS011;229;48.734;9.340;2023-12-29T11:23:07;4.03;;;1.63;;
485;SDS011;229;48.734;9.340;2023-12-29T11:25:36;4.57;;;1.55;;
485;SDS011;229;48.734;9.340;2023-12-29T11:28:04;2.33;;;1.85;;
485;SDS011;229;48.734;9.340;2023-12-29T11:30:33;2.97;;;1.50;;
485;SDS011;229;48.734;9.340;2023-12-29T11:33:02;2.38;;;1.77;;
485;SDS011;229;48.734;9.340;2023-12-29T11:35:32;3.65;;;3.00;;
485;SDS011;229;48.734;9.340;2023-12-29T11:40:44;2.22;;;1.75;;
485;SDS011;229;48.734;9.340;2023-12-29T11:43:13;2.25;;;1.65;;
485;SDS011;229;48.734;9.340;2023-12-29T11:45:41;2.95;;;2.03;;
485;SDS011;229;48.734;9.340;2023-12-29T11:48:10;3.70;;;1.70;;
485;SDS011;229;48.734;9.340;2023-12-29T11:50:39;2.63;;;1.83;;
485;SDS011;229;48.734;9.340;2023-12-29T11:53:06;1.88;;;1.73;;
485;SDS011;229;48.734;9.340;2023-12-29T11:55:34;1.40;;;1.30;;
485;SDS011;229;48.734;9.340;2023-12-29T11:58:01;1.50;;;1.40;;
485;SDS011;229;48.734;9.340;2023-12-29T12:00:42;2.10;;;1.88;;
485;SDS011;229;48.734;9.340;2023-12-29T12:03:15;1.90;;;1.63;;
485;SDS011;229;48.734;9.340;2023-12-29T12:05:45;3.63;;;2.70;;
485;SDS011;229;48.734;9.340;2023-12-29T12:08:26;1.80;;;1.70;;
485;SDS011;229;48.734;9.340;2023-12-29T12:10:54;2.05;;;1.90;;
485;SDS011;229;48.734;9.340;2023-12-29T12:16:07;4.93;;;1.75;;
485;SDS011;229;48.734;9.340;2023-12-29T12:18:35;1.60;;;1.60;;
485;SDS011;229;48.734;9.340;2023-12-29T12:21:03;2.13;;;1.60;;
485;SDS011;229;48.734;9.340;2023-12-29T12:23:30;2.80;;;2.03;;
485;SDS011;229;48.734;9.340;2023-12-29T12:26:00;1.88;;;1.75;;
485;SDS011;229;48.734;9.340;2023-12-29T12:28:28;4.70;;;3.63;;
485;SDS011;229;48.734;9.340;2023-12-29T12:31:04;2.15;;;1.90;;
485;SDS011;229;48.734;9.340;2023-12-29T12:33:32;2.60;;;1.67;;
485;SDS011;229;48.734;9.340;2023-12-29T12:36:00;4.07;;;1.88;;
485;SDS011;229;48.734;9.340;2023-12-29T12:38:28;2.30;;;1.55;;
485;SDS011;229;48.734;9.340;2023-12-29T12:41:07;1.50;;;1.45;;
485;SDS011;229;48.734;9.340;2023-12-29T12:43:36;3.08;;;1.95;;
485;SDS011;229;48.734;9.340;2023-12-29T12:46:05;5.18;;;1.95;;
485;SDS011;229;48.734;9.340;2023-12-29T12:48:39;1.70;;;1.60;;
485;SDS011;229;48.734;9.340;2023-12-29T12:51:09;2.53;;;1.80;;
485;SDS011;229;48.734;9.340;2023-12-29T12:53:39;4.75;;;3.10;;
485;SDS011;229;48.734;9.340;2023-12-29T12:56:06;2.20;;;1.80;;
485;SDS011;229;48.734;9.340;2023-12-29T12:58:34;2.13;;;2.00;;
485;SDS011;229;48.734;9.340;2023-12-29T13:01:01;1.95;;;1.75;;
485;SDS011;229;48.734;9.340;2023-12-29T13:03:29;2.38;;;2.03;;
485;SDS011;229;48.734;9.340;2023-12-29T13:05:57;1.95;;;1.63;;
485;SDS011;229;48.734;9.340;2023-12-29T13:08:25;2.53;;;2.10;;
485;SDS011;229;48.734;9.340;2023-12-29T13:10:53;2.08;;;1.70;;
485;SDS011;229;48.734;9.340;2023-12-29T13:13:21;2.22;;;1.80;;
485;SDS011;229;48.734;9.340;2023-12-29T13:15:48;2.22;;;1.65;;
485;SDS011;229;48.734;9.340;2023-12-29T13:18:15;2.55;;;1.92;;
485;SDS011;229;48.734;9.340;2023-12-29T13:20:43;2.15;;;1.90;;
485;SDS011;229;48.734;9.340;2023-12-29T13:23:11;1.92;;;1.50;;
485;SDS011;229;48.734;9.340;2023-12-29T13:25:40;2.70;;;2.08;;
485;SDS011;229;48.734;9.340;2023-12-29T13:28:09;3.00;;;1.70;;
485;SDS011;229;48.734;9.340;2023-12-29T13:30:37;2.20;;;1.75;;
485;SDS011;229;48.734;9.340;2023-12-29T13:33:07;6.47;;;3.78;;
485;SDS011;229;48.734;9.340;2023-12-29T13:35:37;2.55;;;1.70;;
485;SDS011;229;48.734;9.340;2023-12-29T13:38:07;1.90;;;1.80;;
485;SDS011;229;48.734;9.340;2023-12-29T13:40:36;2.90;;;1.83;;
485;SDS011;229;48.734;9.340;2023-12-29T13:43:08;2.08;;;1.60;;
485;SDS011;229;48.734;9.340;2023-12-29T13:45:36;2.47;;;1.92;;
485;SDS011;229;48.734;9.340;2023-12-29T13:48:03;1.95;;;1.75;;
485;SDS011;229;48.734;9.340;2023-12-29T13:50:31;3.05;;;1.88;;
485;SDS011;229;48.734;9.340;2023-12-29T13:52:59;3.00;;;2.00;;
485;SDS011;229;48.734;9.340;2023-12-29T13:55:26;3.92;;;2.38;;
485;SDS011;229;48.734;9.340;2023-12-29T13:57:53;2.58;;;2.22;;
485;SDS011;229;48.734;9.340;2023-12-29T14:00:23;3.30;;;2.72;;
485;SDS011;229;48.734;9.340;2023-12-29T14:02:57;1.90;;;1.90;;
485;SDS011;229;48.734;9.340;2023-12-29T14:05:27;2.47;;;1.85;;
485;SDS011;229;48.734;9.340;2023-12-29T14:07:55;3.45;;;2.65;;
485;SDS011;229;48.734;9.340;2023-12-29T14:10:28;3.17;;;2.42;;
485;SDS011;229;48.734;9.340;2023-12-29T14:13:02;2.53;;;2.35;;
485;SDS011;229;48.734;9.340;2023-12-29T14:15:35;3.25;;;1.90;;
485;SDS011;229;48.734;9.340;2023-12-29T14:18:03;3.50;;;1.80;;
485;SDS011;229;48.734;9.340;2023-12-29T14:20:34;2.50;;;2.10;;
485;SDS011;229;48.734;9.340;2023-12-29T14:23:02;3.80;;;2.15;;
485;SDS011;229;48.734;9.340;2023-12-29T14:25:30;3.15;;;2.13;;
485;SDS011;229;48.734;9.340;2023-12-29T14:28:00;3.28;;;1.65;;
485;SDS011;229;48.734;9.340;2023-12-29T14:30:28;2.75;;;2.20;;
485;SDS011;229;48.734;9.340;2023-12-29T14:32:58;4.20;;;2.00;;
485;SDS011;229;48.734;9.340;2023-12-29T14:35:25;2.00;;;1.83;;
485;SDS011;229;48.734;9.340;2023-12-29T14:37:52;3.40;;;2.63;;
485;SDS011;229;48.734;9.340;2023-12-29T14:40:19;3.75;;;2.20;;
485;SDS011;229;48.734;9.340;2023-12-29T14:42:46;2.75;;;1.98;;
485;SDS011;229;48.734;9.340;2023-12-29T14:45:13;2.20;;;2.00;;
485;SDS011;229;48.734;9.340;2023-12-29T14:47:41;3.40;;;2.15;;
485;SDS011;229;48.734;9.340;2023-12-29T14:50:11;3.58;;;1.85;;
485;SDS011;229;48.734;9.340;2023-12-29T14:52:39;2.67;;;1.80;;
485;SDS011;229;48.734;9.340;2023-12-29T14:55:06;2.17;;;1.88;;
485;SDS011;229;48.734;9.340;2023-12-29T14:57:33;2.25;;;2.00;;
485;SDS011;229;48.734;9.340;2023-12-29T15:00:00;2.65;;;1.95;;
485;SDS011;229;48.734;9.340;2023-12-29T15:02:29;2.97;;;1.80;;
485;SDS011;229;48.734;9.340;2023-12-29T15:04:56;3.30;;;2.17;;
485;SDS011;229;48.734;9.340;2023-12-29T15:07:25;2.53;;;2.08;;
485;SDS011;229;48.734;9.340;2023-12-29T15:09:55;4.15;;;2.53;;
485;SDS011;229;48.734;9.340;2023-12-29T15:12:22;3.28;;;2.72;;
485;SDS011;229;48.734;9.340;2023-12-29T15:14:49;2.15;;;1.88;;
485;SDS011;229;48.734;9.340;2023-12-29T15:17:17;4.72;;;1.92;;
485;SDS011;229;48.734;9.340;2023-12-29T15:19:44;2.15;;;2.00;;
485;SDS011;229;48.734;9.340;2023-12-29T15:22:11;2.17;;;1.95;;
485;SDS011;229;48.734;9.340;2023-12-29T15:24:40;6.03;;;2.30;;
485;SDS011;229;48.734;9.340;2023-12-29T15:27:07;3.28;;;1.90;;
485;SDS011;229;48.734;9.340;2023-12-29T15:29:34;3.05;;;2.22;;
485;SDS011;229;48.734;9.340;2023-12-29T15:32:01;2.75;;;2.45;;
485;SDS011;229;48.734;9.340;2023-12-29T15:34:29;3.00;;;2.33;;
485;SDS011;229;48.734;9.340;2023-12-29T15:36:56;3.45;;;2.30;;
485;SDS011;229;48.734;9.340;2023-12-29T15:39:23;3.08;;;2.25;;
485;SDS011;229;48.734;9.340;2023-12-29T15:41:51;3.90;;;2.00;;
485;SDS011;229;48.734;9.340;2023-12-29T15:44:19;2.47;;;1.80;;
485;SDS011;229;48.734;9.340;2023-12-29T15:46:47;2.67;;;1.92;;
485;SDS011;229;48.734;9.340;2023-12-29T15:49:14;2.35;;;2.03;;
485;SDS011;229;48.734;9.340;2023-12-29T15:51:41;3.50;;;2.00;;
485;SDS011;229;48.734;9.340;2023-12-29T15:54:08;2.20;;;2.00;;